Time;durP1;ratioP1;P1;durP2;ratioP2;P2;SDS_P1;SDS_P2;PMS_P1;PMS_P2;Temp;Humidity;BMP_temperature;BMP_pressure;BME280_temperature;BME280_humidity;BME280_pressure;Samples;Min_cycle;Max_cycle;Signal;HPM_P1;HPM_P2
2023/12/11 00:00:47;;;;;;;36.08;5.60;;;8.80;99.90;;;;;;4960863;28;20073;-58
2023/12/11 00:03:13;;;;;;;33.20;5.60;;;8.80;99.90;;;;;;4958372;28;20051;-57
2023/12/11 00:05:39;;;;;;;38.03;5.63;;;8.70;99.90;;;;;;4962947;28;20049;-57
2023/12/11 00:08:06;;;;;;;32.13;4.95;;;8.70;99.90;;;;;;4964050;28;20081;-58
2023/12/11 00:10:32;;;;;;;51.35;6.70;;;8.60;99.90;;;;;;4955305;28;20038;-58
2023/12/11 00:12:58;;;;;;;38.20;6.55;;;8.60;99.90;;;;;;4961313;28;20043;-58
2023/12/11 00:15:23;;;;;;;35.08;5.78;;;8.50;99.90;;;;;;4961988;28;20042;-58
2023/12/11 00:17:49;;;;;;;49.45;6.57;;;8.50;99.90;;;;;;4923196;28;20165;-57
2023/12/11 00:20:15;;;;;;;36.45;5.53;;;8.50;99.90;;;;;;4959639;28;20159;-58
2023/12/11 00:22:41;;;;;;;31.10;5.88;;;8.40;99.90;;;;;;4949686;28;20096;-56
2023/12/11 00:25:07;;;;;;;37.72;5.30;;;8.40;99.90;;;;;;4960195;28;20042;-57
2023/12/11 00:27:33;;;;;;;40.45;6.30;;;8.40;99.90;;;;;;4964291;28;20231;-58
2023/12/11 00:29:59;;;;;;;48.78;7.45;;;8.40;99.90;;;;;;4967491;28;20046;-58
2023/12/11 00:32:25;;;;;;;41.38;6.00;;;8.40;99.90;;;;;;4963243;28;20042;-59
2023/12/11 00:34:51;;;;;;;44.70;6.45;;;8.30;99.90;;;;;;4965962;28;20046;-58
2023/12/11 00:37:18;;;;;;;39.35;6.30;;;8.30;99.90;;;;;;4966107;28;20547;-58
2023/12/11 00:39:43;;;;;;;46.35;6.82;;;8.30;99.90;;;;;;4966351;28;20050;-57
2023/12/11 00:42:09;;;;;;;39.30;7.10;;;8.30;99.90;;;;;;4983107;28;20119;-59
2023/12/11 00:44:38;;;;;;;51.33;8.20;;;8.30;99.90;;;;;;4984333;28;20056;-57
2023/12/11 00:47:04;;;;;;;45.67;6.40;;;8.30;99.90;;;;;;4983622;28;20056;-58
2023/12/11 00:49:31;;;;;;;48.25;6.97;;;8.30;99.90;;;;;;4977896;28;20787;-59
2023/12/11 00:51:57;;;;;;;56.38;7.20;;;8.40;99.90;;;;;;4967026;28;20220;-57
2023/12/11 00:54:23;;;;;;;52.08;7.78;;;8.40;99.90;;;;;;4984015;28;20045;-57
2023/12/11 00:56:48;;;;;;;48.63;7.80;;;8.40;99.90;;;;;;4968744;28;20050;-58
2023/12/11 00:59:14;;;;;;;60.15;8.07;;;8.40;99.90;;;;;;4964834;28;20047;-59
2023/12/11 01:01:40;;;;;;;61.65;7.53;;;8.40;99.90;;;;;;4981816;28;20133;-57
2023/12/11 01:04:06;;;;;;;49.92;7.80;;;8.50;99.90;;;;;;4980993;28;20141;-58
2023/12/11 01:06:31;;;;;;;47.90;8.15;;;8.50;99.90;;;;;;4979528;28;20074;-59
2023/12/11 01:08:57;;;;;;;53.08;8.32;;;8.50;99.90;;;;;;4983512;28;20466;-57
2023/12/11 01:11:23;;;;;;;54.60;6.60;;;8.60;99.90;;;;;;4964996;28;20132;-58
2023/12/11 01:13:49;;;;;;;55.13;7.90;;;8.50;99.90;;;;;;4963704;28;20085;-58
2023/12/11 01:16:14;;;;;;;57.50;8.05;;;8.60;99.90;;;;;;4980794;28;20133;-58
2023/12/11 01:18:40;;;;;;;53.78;6.82;;;8.60;99.90;;;;;;4983169;28;20078;-58
2023/12/11 01:21:06;;;;;;;46.10;7.30;;;8.60;99.90;;;;;;4983421;28;20041;-57
2023/12/11 01:23:32;;;;;;;52.38;7.70;;;8.60;99.90;;;;;;4974604;28;20103;-56
2023/12/11 01:25:57;;;;;;;44.60;6.88;;;8.70;99.90;;;;;;4977300;28;20910;-59
2023/12/11 01:28:23;;;;;;;56.30;7.80;;;8.70;99.90;;;;;;4968033;28;20170;-56
2023/12/11 01:30:49;;;;;;;53.58;7.53;;;8.70;99.90;;;;;;4952027;28;20041;-58
2023/12/11 01:33:14;;;;;;;50.92;7.97;;;8.70;99.90;;;;;;4979445;28;20496;-57
2023/12/11 01:35:40;;;;;;;49.30;7.30;;;8.70;99.90;;;;;;4963502;28;20041;-58
2023/12/11 01:38:06;;;;;;;45.65;6.47;;;8.70;99.90;;;;;;4978520;28;20038;-57
2023/12/11 01:40:32;;;;;;;46.00;6.43;;;8.70;99.90;;;;;;4980254;28;20069;-58
2023/12/11 01:43:20;;;;;;;50.50;7.70;;;8.70;99.90;;;;;;4977338;28;20560;-57
2023/12/11 01:46:04;;;;;;;42.20;6.30;;;8.70;99.90;;;;;;4980734;28;20474;-57
2023/12/11 01:48:31;;;;;;;43.72;7.53;;;8.70;99.90;;;;;;4978394;28;20650;-59
2023/12/11 01:50:57;;;;;;;45.92;7.18;;;8.70;99.90;;;;;;4981407;28;20050;-54
2023/12/11 01:53:23;;;;;;;49.45;6.20;;;8.70;99.90;;;;;;4983668;28;20487;-57
2023/12/11 01:55:49;;;;;;;39.47;6.50;;;8.70;99.90;;;;;;4983155;28;20054;-58
2023/12/11 01:58:16;;;;;;;43.97;6.82;;;8.70;99.90;;;;;;4969879;28;20038;-58
2023/12/11 02:00:42;;;;;;;44.80;7.07;;;8.70;99.90;;;;;;4964511;28;21054;-59
2023/12/11 02:03:09;;;;;;;46.25;6.80;;;8.70;99.90;;;;;;4963838;28;20073;-58
2023/12/11 02:05:36;;;;;;;44.28;6.40;;;8.70;99.90;;;;;;4981988;28;20046;-58
2023/12/11 02:08:02;;;;;;;50.17;6.63;;;8.70;99.90;;;;;;4982243;28;20513;-58
2023/12/11 02:10:27;;;;;;;42.70;6.88;;;8.70;99.90;;;;;;4981669;28;20050;-57
2023/12/11 02:12:53;;;;;;;48.60;6.95;;;8.70;99.90;;;;;;4963386;28;20132;-57
2023/12/11 02:15:42;;;;;;;34.80;5.43;;;8.70;99.90;;;;;;4983453;28;20133;-58
2023/12/11 02:18:09;;;;;;;37.90;5.32;;;8.80;99.90;;;;;;4983268;28;20061;-57
2023/12/11 02:20:36;;;;;;;36.20;5.90;;;8.70;99.90;;;;;;4986290;28;20046;-59
2023/12/11 02:23:06;;;;;;;35.55;5.95;;;8.70;99.90;;;;;;4966701;28;20054;-60
2023/12/11 02:25:35;;;;;;;41.92;6.45;;;8.70;99.90;;;;;;4984950;28;20499;-58
2023/12/11 02:28:02;;;;;;;33.28;5.97;;;8.70;99.90;;;;;;4967435;28;20039;-58
2023/12/11 02:30:32;;;;;;;42.67;6.57;;;8.70;99.90;;;;;;4954967;28;20532;-58
2023/12/11 02:32:58;;;;;;;39.78;5.90;;;8.70;99.90;;;;;;4970932;28;20677;-58
2023/12/11 02:35:24;;;;;;;42.60;7.15;;;8.70;99.90;;;;;;4983990;28;20131;-58
2023/12/11 02:37:49;;;;;;;51.58;7.00;;;8.70;99.90;;;;;;4980118;28;20073;-59
2023/12/11 02:40:15;;;;;;;53.58;7.97;;;8.60;99.90;;;;;;4979881;28;20057;-58
2023/12/11 02:42:47;;;;;;;45.60;6.88;;;8.70;99.90;;;;;;4983036;28;20112;-60
2023/12/11 02:45:14;;;;;;;46.33;7.13;;;8.70;99.90;;;;;;4982756;28;20038;-57
2023/12/11 02:47:40;;;;;;;48.08;6.90;;;8.70;99.90;;;;;;4977602;28;20103;-58
2023/12/11 02:50:06;;;;;;;54.33;8.18;;;8.60;99.90;;;;;;4982260;28;20074;-59
2023/12/11 02:52:32;;;;;;;60.28;8.43;;;8.70;99.90;;;;;;4982907;28;20050;-58
2023/12/11 02:54:58;;;;;;;51.15;7.00;;;8.70;99.90;;;;;;4980798;28;20471;-58
2023/12/11 02:57:24;;;;;;;53.90;8.57;;;8.70;99.90;;;;;;4965538;28;20187;-59
2023/12/11 02:59:49;;;;;;;50.75;7.63;;;8.70;99.90;;;;;;4980787;28;20505;-58
2023/12/11 03:02:15;;;;;;;64.03;8.02;;;8.70;99.90;;;;;;4977147;28;20468;-59
2023/12/11 03:04:41;;;;;;;61.22;8.50;;;8.70;99.90;;;;;;4961147;28;20046;-57
2023/12/11 03:07:07;;;;;;;52.35;7.35;;;8.70;99.90;;;;;;4977558;28;20731;-57
2023/12/11 03:09:32;;;;;;;55.67;7.43;;;8.70;99.90;;;;;;4978677;28;20406;-58
2023/12/11 03:11:58;;;;;;;54.33;7.38;;;8.70;99.90;;;;;;4977587;28;20414;-59
2023/12/11 03:14:24;;;;;;;50.08;7.53;;;8.80;99.90;;;;;;4978446;28;20046;-59
2023/12/11 03:16:50;;;;;;;54.20;7.68;;;8.80;99.90;;;;;;4978827;28;20038;-57
2023/12/11 03:19:16;;;;;;;56.35;7.70;;;8.80;99.90;;;;;;4961132;28;20041;-58
2023/12/11 03:21:42;;;;;;;57.25;7.80;;;8.80;99.90;;;;;;4977627;28;20057;-58
2023/12/11 03:24:08;;;;;;;54.58;8.68;;;8.80;99.90;;;;;;4959164;28;20050;-58
2023/12/11 03:26:34;;;;;;;59.95;8.65;;;8.80;99.90;;;;;;4965101;28;20049;-57
2023/12/11 03:29:00;;;;;;;59.97;8.50;;;8.80;99.90;;;;;;4977780;28;20042;-57
2023/12/11 03:31:25;;;;;;;52.85;8.02;;;8.80;99.90;;;;;;4975668;28;20074;-59
2023/12/11 03:33:51;;;;;;;57.65;8.73;;;8.80;99.90;;;;;;4968325;28;20402;-58
2023/12/11 03:36:17;;;;;;;53.90;7.90;;;8.80;99.90;;;;;;4969250;28;20092;-57
2023/12/11 03:38:43;;;;;;;55.65;8.40;;;8.80;99.90;;;;;;4979660;28;20139;-58
2023/12/11 03:41:10;;;;;;;64.70;8.63;;;8.80;99.90;;;;;;4958211;28;20062;-58
2023/12/11 03:43:35;;;;;;;62.83;8.65;;;8.80;99.90;;;;;;4978474;28;20061;-60
2023/12/11 03:46:03;;;;;;;48.25;7.68;;;8.80;99.90;;;;;;4960225;28;20627;-58
2023/12/11 03:48:29;;;;;;;60.97;8.93;;;8.80;99.90;;;;;;4973790;28;20102;-57
2023/12/11 03:50:55;;;;;;;57.92;7.80;;;8.80;99.90;;;;;;4976738;28;20753;-57
2023/12/11 03:53:21;;;;;;;66.38;8.98;;;8.80;99.90;;;;;;4978568;28;20081;-58
2023/12/11 03:55:47;;;;;;;54.47;8.73;;;8.80;99.90;;;;;;4977562;28;20038;-58
2023/12/11 03:58:13;;;;;;;64.00;8.68;;;8.90;99.90;;;;;;4975017;28;20403;-57
2023/12/11 04:00:39;;;;;;;50.45;8.50;;;8.90;99.90;;;;;;4976179;28;20045;-57
2023/12/11 04:03:05;;;;;;;49.40;7.35;;;8.90;99.90;;;;;;4980128;28;20046;-57
2023/12/11 04:05:30;;;;;;;56.63;8.70;;;8.90;99.90;;;;;;4979679;28;20490;-57
2023/12/11 04:07:56;;;;;;;53.65;7.30;;;8.90;99.90;;;;;;4976596;28;20525;-59
2023/12/11 04:10:22;;;;;;;50.38;8.25;;;8.90;99.90;;;;;;4961849;28;20053;-59
2023/12/11 04:12:48;;;;;;;50.33;7.85;;;8.90;99.90;;;;;;4979329;28;20446;-59
2023/12/11 04:15:13;;;;;;;53.42;7.97;;;8.90;99.90;;;;;;4980060;28;20773;-59
2023/12/11 04:17:42;;;;;;;53.60;8.00;;;8.90;99.90;;;;;;4976991;28;20670;-59
2023/12/11 04:20:08;;;;;;;57.83;7.28;;;8.90;99.90;;;;;;4980650;28;20061;-57
2023/12/11 04:22:34;;;;;;;61.17;8.32;;;8.90;99.90;;;;;;4957934;28;20175;-56
2023/12/11 04:25:00;;;;;;;59.08;8.23;;;8.90;99.90;;;;;;4980574;28;20608;-59
2023/12/11 04:27:25;;;;;;;68.45;8.73;;;8.90;99.90;;;;;;4981565;28;20082;-57
2023/12/11 04:29:51;;;;;;;55.72;7.93;;;8.90;99.90;;;;;;4981553;28;20100;-58
2023/12/11 04:32:17;;;;;;;68.15;9.13;;;8.90;99.90;;;;;;4965166;28;20763;-58
2023/12/11 04:34:43;;;;;;;53.22;7.35;;;8.90;99.90;;;;;;4962436;28;20043;-58
2023/12/11 04:37:09;;;;;;;52.30;7.80;;;9.00;99.90;;;;;;4971020;28;20038;-58
2023/12/11 04:39:35;;;;;;;45.20;7.82;;;8.90;99.90;;;;;;4959690;28;20663;-59
2023/12/11 04:42:00;;;;;;;54.90;7.95;;;8.90;99.90;;;;;;4951367;28;20406;-58
2023/12/11 04:44:26;;;;;;;52.50;7.88;;;8.90;99.90;;;;;;4978366;28;20092;-57
2023/12/11 04:46:52;;;;;;;51.55;7.95;;;8.90;99.90;;;;;;4975820;28;20455;-57
2023/12/11 04:49:18;;;;;;;54.00;7.45;;;8.90;99.90;;;;;;4977007;28;20046;-58
2023/12/11 04:51:43;;;;;;;56.22;8.57;;;8.90;99.90;;;;;;4967198;28;20105;-57
2023/12/11 04:54:09;;;;;;;44.83;7.03;;;8.90;99.90;;;;;;4977922;28;20125;-59
2023/12/11 04:56:35;;;;;;;52.40;8.05;;;8.90;99.90;;;;;;4977603;28;20523;-59
2023/12/11 04:59:01;;;;;;;47.10;7.20;;;8.90;99.90;;;;;;4979333;28;20043;-56
2023/12/11 05:01:27;;;;;;;51.75;7.43;;;8.90;99.90;;;;;;4974369;28;20597;-57
2023/12/11 05:03:53;;;;;;;44.00;6.88;;;8.90;99.90;;;;;;4977694;28;20101;-58
2023/12/11 05:06:19;;;;;;;46.25;7.95;;;8.90;99.90;;;;;;4978888;28;20050;-58
2023/12/11 05:08:45;;;;;;;46.55;7.70;;;8.90;99.90;;;;;;4975360;28;21144;-56
2023/12/11 05:11:11;;;;;;;51.55;7.68;;;9.00;99.90;;;;;;4978895;28;20046;-57
2023/12/11 05:13:37;;;;;;;38.65;6.70;;;8.90;99.90;;;;;;4980653;28;20081;-58
2023/12/11 05:16:03;;;;;;;47.17;8.10;;;8.90;99.90;;;;;;4963663;28;20042;-59
2023/12/11 05:18:29;;;;;;;43.22;6.82;;;8.90;99.90;;;;;;4976159;28;20421;-58
2023/12/11 05:20:55;;;;;;;46.42;8.02;;;8.90;99.90;;;;;;4980753;28;20077;-56
2023/12/11 05:23:21;;;;;;;51.75;7.40;;;8.80;99.90;;;;;;4978755;28;20062;-58
2023/12/11 05:25:47;;;;;;;48.60;6.80;;;8.80;99.90;;;;;;4980191;28;20045;-57
2023/12/11 05:28:13;;;;;;;47.00;7.18;;;8.80;99.90;;;;;;4969702;28;20073;-57
2023/12/11 05:30:38;;;;;;;39.47;6.05;;;8.80;99.90;;;;;;4979690;28;20052;-57
2023/12/11 05:33:04;;;;;;;53.70;6.72;;;8.80;99.90;;;;;;4977917;28;20041;-57
2023/12/11 05:35:30;;;;;;;46.63;5.60;;;8.80;99.90;;;;;;4981750;28;20226;-58
2023/12/11 05:37:57;;;;;;;43.08;7.18;;;8.80;99.90;;;;;;4982191;28;20092;-58
2023/12/11 05:40:23;;;;;;;51.35;7.68;;;8.80;99.90;;;;;;4962605;28;20188;-58
2023/12/11 05:42:49;;;;;;;36.78;6.50;;;8.80;99.90;;;;;;4958563;28;20049;-59
2023/12/11 05:45:15;;;;;;;46.08;6.15;;;8.80;99.90;;;;;;4963963;28;20053;-58
2023/12/11 05:47:40;;;;;;;47.72;6.75;;;8.80;99.90;;;;;;4956946;28;26707;-58
2023/12/11 05:50:06;;;;;;;53.35;7.00;;;8.80;99.90;;;;;;4965993;28;20042;-58
2023/12/11 05:52:32;;;;;;;46.08;6.85;;;8.80;99.90;;;;;;4970538;28;20050;-57
2023/12/11 05:54:58;;;;;;;42.38;6.53;;;8.80;99.90;;;;;;4978780;28;21578;-58
2023/12/11 05:57:24;;;;;;;40.60;6.57;;;8.80;99.90;;;;;;4976204;28;20072;-58
2023/12/11 05:59:50;;;;;;;46.50;7.05;;;8.80;99.90;;;;;;4977304;28;20046;-59
2023/12/11 06:02:15;;;;;;;46.30;6.80;;;8.80;99.90;;;;;;4965245;28;20173;-59
2023/12/11 06:04:41;;;;;;;47.45;6.40;;;8.80;99.90;;;;;;4964308;28;20041;-58
2023/12/11 06:07:07;;;;;;;41.42;6.22;;;8.80;99.90;;;;;;4980195;28;20607;-60
2023/12/11 06:09:33;;;;;;;34.92;6.75;;;8.80;99.90;;;;;;4968682;28;20140;-59
2023/12/11 06:11:58;;;;;;;43.92;6.93;;;8.80;99.90;;;;;;4952539;28;20805;-57
2023/12/11 06:14:24;;;;;;;44.65;6.47;;;8.80;99.90;;;;;;4979671;28;20049;-58
2023/12/11 06:16:50;;;;;;;42.08;5.95;;;8.80;99.90;;;;;;4963432;28;20054;-57
2023/12/11 06:19:15;;;;;;;55.13;6.70;;;8.80;99.90;;;;;;4960476;28;20046;-58
2023/12/11 06:21:42;;;;;;;44.13;6.25;;;8.70;99.90;;;;;;4969631;28;20061;-59
2023/12/11 06:24:07;;;;;;;40.58;6.63;;;8.80;99.90;;;;;;4969765;28;20058;-57
2023/12/11 06:26:36;;;;;;;38.15;5.45;;;8.80;99.90;;;;;;4971941;28;20042;-59
2023/12/11 06:29:03;;;;;;;38.70;6.10;;;8.80;99.90;;;;;;4975912;28;20128;-57
2023/12/11 06:31:30;;;;;;;42.08;6.53;;;8.70;99.90;;;;;;4970524;28;20721;-59
2023/12/11 06:33:56;;;;;;;41.95;6.80;;;8.70;99.90;;;;;;4972350;28;20108;-60
2023/12/11 06:36:22;;;;;;;35.28;5.82;;;8.80;99.90;;;;;;4972952;28;20176;-60
2023/12/11 06:38:50;;;;;;;41.08;6.15;;;8.70;99.90;;;;;;4978199;28;20054;-61
2023/12/11 06:41:17;;;;;;;31.10;5.70;;;8.70;99.90;;;;;;4966222;28;20545;-61
2023/12/11 06:43:52;;;;;;;36.55;6.43;;;8.70;99.90;;;;;;4981633;28;20468;-61
2023/12/11 06:46:18;;;;;;;39.58;6.25;;;8.70;99.90;;;;;;4968142;28;20577;-61
2023/12/11 06:48:44;;;;;;;33.20;6.30;;;8.70;99.90;;;;;;4960254;28;20041;-61
2023/12/11 06:51:10;;;;;;;42.20;6.22;;;8.70;99.90;;;;;;4975947;28;20398;-61
2023/12/11 06:53:36;;;;;;;36.88;6.38;;;8.70;99.90;;;;;;4968192;28;20060;-59
2023/12/11 06:56:03;;;;;;;35.88;6.22;;;8.70;99.90;;;;;;4976934;28;20049;-61
2023/12/11 06:58:29;;;;;;;39.67;6.53;;;8.70;99.90;;;;;;4979166;28;20129;-60
2023/12/11 07:00:55;;;;;;;44.70;6.55;;;8.70;99.90;;;;;;4971582;28;20088;-60
2023/12/11 07:03:21;;;;;;;45.72;6.55;;;8.70;99.90;;;;;;4960032;28;20050;-61
2023/12/11 07:05:47;;;;;;;44.88;6.38;;;8.70;99.90;;;;;;4956595;28;20049;-61
2023/12/11 07:08:13;;;;;;;38.65;6.47;;;8.70;99.90;;;;;;4976030;28;20659;-61
2023/12/11 07:10:39;;;;;;;41.45;6.28;;;8.70;99.90;;;;;;4981716;28;20046;-61
2023/12/11 07:13:05;;;;;;;37.53;5.70;;;8.70;99.90;;;;;;4962232;28;20060;-60
2023/12/11 07:15:31;;;;;;;39.72;6.03;;;8.70;99.90;;;;;;4978771;28;20042;-59
2023/12/11 07:17:57;;;;;;;36.15;5.68;;;8.70;99.90;;;;;;4966387;28;20079;-61
2023/12/11 07:20:23;;;;;;;36.58;6.00;;;8.70;99.90;;;;;;4952316;28;20049;-61
2023/12/11 07:22:53;;;;;;;35.63;6.03;;;8.70;99.90;;;;;;4959334;28;20416;-59
2023/12/11 07:25:19;;;;;;;47.45;5.93;;;8.70;99.90;;;;;;4970460;28;20073;-60
2023/12/11 07:27:44;;;;;;;37.92;5.72;;;8.70;99.90;;;;;;4982474;28;20132;-61
2023/12/11 07:30:11;;;;;;;31.08;5.75;;;8.70;99.90;;;;;;4948074;28;20050;-60
2023/12/11 07:32:37;;;;;;;40.42;5.88;;;8.70;99.90;;;;;;4961523;28;20096;-59
2023/12/11 07:35:03;;;;;;;29.90;4.53;;;8.70;99.90;;;;;;4979692;28;20042;-61
2023/12/11 07:37:29;;;;;;;26.23;4.55;;;8.60;99.90;;;;;;4981472;28;20050;-61
2023/12/11 07:39:55;;;;;;;26.75;4.93;;;8.70;99.90;;;;;;4960952;28;20415;-61
2023/12/11 07:42:22;;;;;;;28.75;4.85;;;8.70;99.90;;;;;;4977331;28;20046;-61
2023/12/11 07:44:48;;;;;;;23.45;4.72;;;8.70;99.90;;;;;;4978340;28;20085;-59
2023/12/11 07:47:13;;;;;;;27.77;4.53;;;8.70;99.90;;;;;;4980346;28;20041;-61
2023/12/11 07:49:39;;;;;;;25.08;3.95;;;8.70;99.90;;;;;;4978829;28;20073;-60
2023/12/11 07:52:05;;;;;;;24.15;4.45;;;8.70;99.90;;;;;;4978764;28;20092;-61
2023/12/11 07:54:31;;;;;;;29.92;4.75;;;8.70;99.90;;;;;;4971728;28;20082;-60
2023/12/11 07:56:58;;;;;;;27.83;4.70;;;8.70;99.90;;;;;;4953669;28;20041;-60
2023/12/11 07:59:24;;;;;;;26.73;4.90;;;8.70;99.90;;;;;;4971595;28;20132;-60
2023/12/11 08:01:52;;;;;;;26.73;4.43;;;8.70;99.90;;;;;;4955254;28;20532;-61
2023/12/11 08:04:17;;;;;;;21.42;3.50;;;8.70;99.90;;;;;;4952198;28;20046;-61
2023/12/11 08:06:43;;;;;;;25.63;4.15;;;8.70;99.90;;;;;;4952678;28;20713;-60
2023/12/11 08:09:09;;;;;;;33.63;4.75;;;8.70;99.90;;;;;;4953819;28;20042;-59
2023/12/11 08:11:35;;;;;;;22.70;4.53;;;8.60;99.90;;;;;;4961786;28;20599;-61
2023/12/11 08:14:01;;;;;;;27.40;4.82;;;8.70;99.90;;;;;;4972437;28;20053;-59
2023/12/11 08:16:27;;;;;;;26.85;4.10;;;8.70;99.90;;;;;;4980646;28;20042;-61
2023/12/11 08:18:53;;;;;;;22.35;4.57;;;8.70;99.90;;;;;;4985744;28;20065;-61
2023/12/11 08:21:19;;;;;;;22.35;4.32;;;8.70;99.90;;;;;;4965729;28;20628;-61
2023/12/11 08:23:47;;;;;;;25.50;4.45;;;8.70;99.90;;;;;;4958897;28;20056;-61
2023/12/11 08:26:20;;;;;;;23.83;4.03;;;8.70;99.90;;;;;;4971429;28;20107;-60
2023/12/11 08:28:46;;;;;;;;;;;8.70;99.90;;;;;;4978014;28;20050;-61
2023/12/11 08:31:12;;;;;;;21.33;4.47;;;8.70;99.90;;;;;;4973303;28;19925;-61
2023/12/11 08:33:38;;;;;;;19.55;3.53;;;8.60;99.90;;;;;;4953652;28;20088;-60
2023/12/11 08:36:04;;;;;;;21.75;3.53;;;8.70;99.90;;;;;;4969607;28;20792;-60
2023/12/11 08:38:30;;;;;;;18.95;3.38;;;8.70;99.90;;;;;;4971302;28;20042;-60
2023/12/11 08:40:57;;;;;;;21.67;4.03;;;8.70;99.90;;;;;;4968979;28;20076;-61
2023/12/11 08:43:23;;;;;;;17.60;2.97;;;8.60;99.90;;;;;;4967900;28;20123;-59
2023/12/11 08:45:49;;;;;;;19.10;3.63;;;8.70;99.90;;;;;;4972983;28;20080;-60
2023/12/11 08:48:15;;;;;;;21.42;3.70;;;8.70;99.90;;;;;;4956443;28;20081;-60
2023/12/11 08:50:41;;;;;;;18.50;4.10;;;8.70;99.90;;;;;;4962069;28;20056;-59
2023/12/11 08:53:07;;;;;;;21.95;4.10;;;8.70;99.90;;;;;;4973157;28;20507;-59
2023/12/11 08:55:33;;;;;;;18.13;3.58;;;8.70;99.90;;;;;;4975848;28;20052;-60
2023/12/11 08:57:59;;;;;;;17.90;3.90;;;8.70;99.90;;;;;;4961997;28;20407;-60
2023/12/11 09:00:24;;;;;;;21.23;4.57;;;8.70;99.90;;;;;;4972582;28;20050;-60
2023/12/11 09:02:51;;;;;;;22.92;4.32;;;8.70;99.90;;;;;;4976353;28;20510;-61
2023/12/11 09:05:16;;;;;;;18.90;4.45;;;8.70;99.90;;;;;;4976386;28;20385;-59
2023/12/11 09:07:42;;;;;;;27.02;5.13;;;8.70;99.90;;;;;;4981115;28;20046;-61
2023/12/11 09:10:09;;;;;;;22.30;4.50;;;8.70;99.90;;;;;;4961952;28;20350;-60
2023/12/11 09:12:38;;;;;;;20.10;5.32;;;8.70;99.90;;;;;;4967248;28;20097;-61
2023/12/11 09:15:05;;;;;;;26.75;5.20;;;8.80;99.90;;;;;;4982136;28;20069;-61
2023/12/11 09:17:31;;;;;;;27.60;5.63;;;8.80;99.90;;;;;;4979723;28;20053;-59
2023/12/11 09:19:57;;;;;;;20.02;4.13;;;8.80;99.90;;;;;;4968174;28;20047;-61
2023/12/11 09:22:24;;;;;;;20.98;4.78;;;8.80;99.90;;;;;;4977832;28;20052;-61
2023/12/11 09:24:49;;;;;;;25.35;5.18;;;8.80;99.90;;;;;;4960719;28;20054;-61
2023/12/11 09:27:15;;;;;;;26.90;5.20;;;8.80;99.90;;;;;;4984037;28;20083;-60
2023/12/11 09:29:41;;;;;;;25.73;5.03;;;8.80;99.90;;;;;;4977650;28;20046;-61
2023/12/11 09:32:07;;;;;;;26.17;4.80;;;8.80;99.90;;;;;;4967896;28;20572;-61
2023/12/11 09:34:35;;;;;;;26.40;5.03;;;8.80;99.90;;;;;;4981187;28;20038;-59
2023/12/11 09:37:01;;;;;;;25.27;5.50;;;8.80;99.90;;;;;;4967092;28;20069;-60
2023/12/11 09:39:27;;;;;;;28.58;5.32;;;8.80;99.90;;;;;;4974093;28;20055;-60
2023/12/11 09:41:53;;;;;;;28.13;5.30;;;8.80;99.90;;;;;;4945064;28;20483;-61
2023/12/11 09:44:21;;;;;;;26.90;4.68;;;8.90;99.90;;;;;;4955463;28;20046;-61
2023/12/11 09:47:01;;;;;;;30.25;6.22;;;8.90;99.90;;;;;;4958317;28;20095;-58
2023/12/11 09:49:27;;;;;;;27.38;5.53;;;8.90;99.90;;;;;;4968399;28;20591;-61
2023/12/11 09:51:53;;;;;;;25.10;5.20;;;8.90;99.90;;;;;;4976823;28;20112;-59
2023/12/11 09:54:19;;;;;;;33.65;6.20;;;8.90;99.90;;;;;;4958284;28;20446;-61
2023/12/11 09:56:45;;;;;;;26.92;5.18;;;9.00;99.90;;;;;;4941691;28;20050;-60
2023/12/11 09:59:13;;;;;;;24.85;4.85;;;9.00;99.90;;;;;;4975888;28;20510;-61
2023/12/11 10:01:39;;;;;;;25.70;5.32;;;9.00;99.90;;;;;;4958508;28;20041;-61
2023/12/11 10:04:06;;;;;;;25.05;4.97;;;9.00;99.90;;;;;;4978258;28;20053;-60
2023/12/11 10:06:32;;;;;;;27.77;4.55;;;9.00;99.90;;;;;;4976646;28;20042;-60
2023/12/11 10:08:58;;;;;;;33.17;4.47;;;9.00;99.90;;;;;;4973953;28;20544;-60
2023/12/11 10:11:26;;;;;;;29.33;4.40;;;9.10;99.90;;;;;;4978251;28;20042;-61
2023/12/11 10:13:52;;;;;;;31.42;4.10;;;9.10;99.90;;;;;;4969328;28;21112;-59
2023/12/11 10:16:33;;;;;;;21.67;3.75;;;9.10;99.90;;;;;;4969393;28;20065;-61
2023/12/11 10:19:02;;;;;;;16.17;3.00;;;9.10;99.90;;;;;;4968700;28;20045;-61
2023/12/11 10:21:39;;;;;;;22.30;3.90;;;9.10;99.90;;;;;;4968274;28;20038;-61
2023/12/11 10:24:15;;;;;;;19.77;3.13;;;9.10;99.90;;;;;;4984499;28;20187;-61
2023/12/11 10:26:46;;;;;;;15.73;2.60;;;9.10;99.90;;;;;;4967500;28;21137;-61
2023/12/11 10:29:30;;;;;;;21.20;3.17;;;9.10;99.90;;;;;;4960121;28;20085;-60
2023/12/11 10:32:03;;;;;;;17.73;3.50;;;9.10;99.90;;;;;;4975428;28;20041;-61
2023/12/11 10:34:45;;;;;;;22.63;3.97;;;9.10;99.90;;;;;;4959804;28;20042;-60
2023/12/11 10:37:15;;;;;;;20.13;4.03;;;9.10;99.90;;;;;;4961036;28;20045;-61
2023/12/11 10:39:56;;;;;;;19.25;4.13;;;9.10;99.90;;;;;;4975519;28;20053;-60
2023/12/11 10:42:23;;;;;;;27.50;4.78;;;9.10;99.90;;;;;;4975104;28;20140;-61
2023/12/11 10:44:49;;;;;;;29.65;4.07;;;9.20;99.90;;;;;;4972840;28;20161;-60
2023/12/11 10:47:15;;;;;;;33.85;4.40;;;9.20;99.90;;;;;;4957845;28;20053;-61
2023/12/11 10:49:41;;;;;;;22.67;4.00;;;9.20;99.90;;;;;;4973050;28;20066;-61
2023/12/11 10:52:07;;;;;;;37.22;4.65;;;9.20;99.90;;;;;;4965951;28;20049;-61
2023/12/11 10:54:37;;;;;;;29.30;4.45;;;9.20;99.90;;;;;;4955997;28;20699;-60
2023/12/11 10:57:07;;;;;;;24.08;4.40;;;9.20;99.90;;;;;;4961067;28;20156;-61
2023/12/11 10:59:35;;;;;;;27.08;4.32;;;9.20;99.90;;;;;;4975839;28;20052;-61
2023/12/11 11:02:02;;;;;;;28.75;4.00;;;9.20;99.90;;;;;;4978652;28;20632;-60
2023/12/11 11:04:32;;;;;;;21.52;3.88;;;9.20;99.90;;;;;;4961750;28;20068;-61
2023/12/11 11:07:14;;;;;;;33.40;4.25;;;9.30;99.90;;;;;;4979336;28;21579;-61
2023/12/11 11:09:57;;;;;;;28.48;4.28;;;9.20;99.90;;;;;;4976932;28;20073;-61
2023/12/11 11:12:30;;;;;;;34.35;4.68;;;9.30;99.90;;;;;;4960163;28;20046;-61
2023/12/11 11:14:56;;;;;;;30.55;4.85;;;9.20;99.90;;;;;;4934573;28;20193;-60
2023/12/11 11:17:22;;;;;;;23.85;4.40;;;9.20;99.90;;;;;;4955688;28;20114;-60
2023/12/11 11:20:12;;;;;;;32.97;4.35;;;9.20;99.90;;;;;;4951536;28;20046;-59
2023/12/11 11:22:38;;;;;;;20.45;3.22;;;9.20;99.90;;;;;;4970186;28;20711;-60
2023/12/11 11:25:28;;;;;;;23.27;3.40;;;9.20;99.90;;;;;;4968305;28;20453;-60
2023/12/11 11:27:54;;;;;;;16.92;2.80;;;9.20;99.90;;;;;;4968433;28;20118;-60
2023/12/11 11:30:43;;;;;;;21.50;4.00;;;9.20;99.90;;;;;;4955104;28;20062;-60
2023/12/11 11:33:09;;;;;;;22.17;3.03;;;9.20;99.90;;;;;;4965726;28;20418;-60
2023/12/11 11:35:52;;;;;;;19.42;3.33;;;9.20;99.90;;;;;;4950256;28;20041;-61
2023/12/11 11:38:19;;;;;;;20.45;2.53;;;9.20;99.90;;;;;;4954987;28;20046;-61
2023/12/11 11:40:47;;;;;;;22.27;2.80;;;9.30;99.90;;;;;;4951386;28;20475;-61
2023/12/11 11:43:14;;;;;;;22.15;3.00;;;9.20;99.90;;;;;;4968561;28;20054;-61
2023/12/11 11:45:41;;;;;;;13.35;2.20;;;9.20;99.90;;;;;;4957097;28;20050;-61
2023/12/11 11:48:07;;;;;;;16.42;2.40;;;9.20;99.90;;;;;;4968945;28;20153;-62
2023/12/11 11:50:33;;;;;;;14.75;2.40;;;9.20;99.90;;;;;;4971064;28;20065;-59
2023/12/11 11:53:10;;;;;;;11.98;2.10;;;9.20;99.90;;;;;;4954937;28;20402;-60
2023/12/11 11:55:38;;;;;;;10.27;2.58;;;9.20;99.90;;;;;;4953709;28;20465;-61
2023/12/11 11:58:14;;;;;;;18.75;2.63;;;9.20;99.90;;;;;;4957247;28;20545;-61
2023/12/11 12:00:41;;;;;;;14.88;2.53;;;9.10;99.90;;;;;;4971506;28;20444;-60
2023/12/11 12:03:08;;;;;;;16.40;2.00;;;9.10;99.90;;;;;;4970154;28;20050;-61
2023/12/11 12:05:51;;;;;;;9.23;2.00;;;9.10;99.90;;;;;;4973546;28;20476;-61
2023/12/11 12:08:17;;;;;;;;;;;9.10;99.90;;;;;;4975499;28;20429;-61
2023/12/11 12:10:43;;;;;;;13.60;1.88;;;9.10;99.90;;;;;;4970141;28;19921;-61
2023/12/11 12:13:09;;;;;;;6.55;1.60;;;9.10;99.90;;;;;;4935413;28;20061;-60
2023/12/11 12:15:44;;;;;;;11.40;2.10;;;9.10;99.90;;;;;;4970175;28;21132;-61
2023/12/11 12:18:12;;;;;;;11.30;1.98;;;9.10;99.90;;;;;;4944258;28;20593;-61
2023/12/11 12:20:37;;;;;;;13.18;2.40;;;9.10;99.90;;;;;;4971562;28;20325;-61
2023/12/11 12:23:07;;;;;;;20.05;2.75;;;9.10;99.90;;;;;;4945583;28;20108;-60
2023/12/11 12:25:34;;;;;;;19.23;3.05;;;9.10;99.90;;;;;;4952257;28;20691;-60
2023/12/11 12:28:06;;;;;;;21.23;3.90;;;9.10;99.90;;;;;;4938284;28;20069;-61
2023/12/11 12:30:33;;;;;;;29.95;4.22;;;9.20;99.90;;;;;;4952590;28;20062;-61
2023/12/11 12:33:01;;;;;;;21.65;3.70;;;9.20;99.90;;;;;;4969513;28;20061;-61
2023/12/11 12:35:27;;;;;;;23.73;3.95;;;9.20;99.90;;;;;;4951312;28;20043;-61
2023/12/11 12:37:55;;;;;;;17.20;2.90;;;9.20;99.90;;;;;;4952740;28;20046;-60
2023/12/11 12:40:21;;;;;;;22.15;3.42;;;9.10;99.90;;;;;;4948758;28;20061;-62
2023/12/11 12:42:47;;;;;;;18.45;3.13;;;9.10;99.90;;;;;;4949080;28;20054;-60
2023/12/11 12:45:24;;;;;;;23.35;3.45;;;9.00;99.90;;;;;;4947254;28;20052;-61
2023/12/11 12:47:50;;;;;;;27.55;3.50;;;9.00;99.90;;;;;;4949868;28;20050;-60